Green Valley, AZ (85614)

9:45 PM MST on September 16, 2014 (GMT -0700)
La Canada Desert Homes I | Change Station
CLOSE
Current Station
Personal Weather Station
Location: Green Valley, AZ
Elevation: 2930 ft
Nearby Weather Stations
Active Advisory: Flash Flood Watch

Elev 2930 ft 31.86 °N, 111.00 °W | Updated 11 minutes ago

Overcast
Overcast
75.4 °F
Feels Like 77 °F
N
4.2
Wind Variable Wind from NNW

Today
High -- | Low -- °F
--% Chance of Precip.
Yesterday
High -- | Low -- °F
Precip. -- in
6:08 AM 6:28 PM
Last Quarter, 39% visible
Pressure 29.95 in
Visibility 10.0 miles
Clouds Few 6500 ft
Few 9000 ft
Mostly Cloudy 11000 ft
Heat Index 77 °F
Dew Point 67 °F
Humidity 76%
Rainfall 0.12 in
Snow Depth 25 in , 1 in , 2 in
UV 0 out of 12
Pollen 3.80 out of 12
Air Quality Not available.
Flu Activity Not available.
METAR KTUS 170353Z 00000KT 10SM -RA FEW065 FEW090 BKN110 26/19 A2995

More Conditions Fewer Conditions

Pressure 29.95 in
Visibility 10.0 miles
Clouds Few 6500 ft
Few 9000 ft
Mostly Cloudy 11000 ft
Heat Index 77 °F
Dew Point 67 °F
Humidity 76%
Rainfall 0.12 in
Snow Depth 25 in , 1 in , 2 in
UV 0 out of 12
Pollen 3.80 out of 12
Air Quality Not available.
Flu Activity Not available.
METAR KTUS 170353Z 00000KT 10SM -RA FEW065 FEW090 BKN110 26/19 A2995

More Conditions Fewer Conditions

10-Day Weather Forecast

Almanac

Astronomy

Sep. 16, 2014 Rise Set
Actual Time 6:08 AM MST 6:28 PM MST
Civil Twilight 5:44 AM MST 6:52 PM MST
Nautical Twilight 5:15 AM MST 7:21 PM MST
Astronomical Twilight 4:46 AM MST 7:50 PM MST
Moon No Moon Rise 1:39 PM MST (9/16)
Length of Visible Light 13h 08m
Length of Day
12h 19m
Tomorrow will be 1m 56s shorter.
Last Quarter, 39% of the Moon is Illuminated
Sep 17
Last Quarter
Sep 24
New
Oct 1
First Quarter
Oct 8
Full
Oct 15
Last Quarter

Yesterday's Extremes

State Highs State Lows

Community

WunderPhotos

Upload Photos

1,753,966 photos uploaded!

Nearby

Snow Depth

Station Depth Elevation
Beaver Head 25 in 7990 ft
Coronado Trail 1 in 8400 ft
Workman Creek 2 in 6900 ft
Wildcat 0 in 7850 ft
Snowslide Canyon 1 in 9730 ft

Earthquake Activity

City Distance Mag. Time & Date
No recent earthquake activity has been reported nearby.
Minimum magnitude displayed is 2.5.

Coastal Water Temperatures

Place Temperature
No Stations Reporting

Nearby Weather Stations